Station: Double Island Point

  Atmospheric Gas Attenuation - ITU Rec 676-11   --------------- db/100km ---------------
Date Time Temp RH % AH g/m3 Dew Point Wind Direction Speed kph Gust kph Barometer mB Rainfall Since 9am 24GHz 47GHz 76GHz 122GHz 134GHz 241GHz
27 01:50 24.2 86 18.92 21.7 9 11 1009.8 0 40.9 40.1 77.4 204.8 225.4 782.9
27 01:40 24.4 87 19.36 22.1 9 11 1009.7 0 41.8 40.9 79.3 209.8 231.7 804.6
27 01:30 24.3 86 19.03 21.8 11 17 1009.9 0 41.1 40.3 77.8 205.9 226.8 787.8
27 01:20 24.4 85 18.92 21.7 15 17 1009.9 0 40.9 40.0 77.2 204.3 224.8 780.8
27 01:10 24.4 85 18.92 21.7 13 17 1010 0 40.9 40.0 77.2 204.3 224.8 780.9
27 01:00 24.5 83 18.58 21.4 13 20 1010.2 0 40.1 39.4 75.5 199.8 219.3 761.7
27 00:50 24.6 82 18.46 21.3 13 17 1010.2 0 39.9 39.1 74.9 198.0 217.2 754.3
27 00:40 24.7 83 18.79 21.6 13 20 1010.3 0 40.6 39.7 76.3 201.9 222.0 771.0
27 00:30 24.6 83 18.68 21.5 13 19 1010.6 0 40.3 39.5 75.9 200.8 220.6 766.3
27 00:20 24.7 84 19.01 21.8 13 17 1010.6 0 41.0 40.1 77.4 204.7 225.4 783.0
27 00:10 24.6 83 18.68 21.5 13 17 1010.7 0 40.3 39.5 75.9 200.8 220.6 766.3
27 00:00 24.7 82 18.56 21.4 17 24 1010.8 0 40.1 39.2 75.3 199.1 218.5 758.9
26 23:50 24.7 83 18.79 21.6 19 22 1010.9 0 40.6 39.7 76.4 202.0 222.1 771.3
26 23:40 24.8 83 18.89 21.7 20 24 1011 0 40.8 39.8 76.7 203.0 223.3 775.7
26 23:30 24.8 83 18.89 21.7 17 24 1011.1 0 40.8 39.8 76.7 203.0 223.3 775.7
26 23:20 24.6 83 18.68 21.5 13 19 1011.1 0 40.3 39.5 75.9 200.9 220.7 766.5
26 23:10 24.6 84 18.91 21.7 11 15 1011.1 0 40.8 40.0 77.0 203.8 224.3 778.9
26 23:00 24.7 82 18.56 21.4 17 24 1011.2 0 40.1 39.3 75.3 199.2 218.6 759.2
26 22:50 24.7 83 18.79 21.6 19 22 1011.3 0 40.6 39.7 76.4 202.1 222.1 771.5
26 22:40 24.5 82 18.35 21.2 13 17 1011.4 0 39.6 39.0 74.5 197.1 216.0 750.1
26 22:30 24.6 82 18.46 21.3 17 24 1011.4 0 39.9 39.1 74.9 198.2 217.4 754.9
26 22:20 24.8 81 18.44 21.3 17 20 1011.4 0 39.8 39.0 74.6 197.4 216.5 751.9
26 22:10 24.9 81 18.54 21.4 20 24 1011.4 0 40.0 39.1 75.0 198.4 217.7 756.2
26 22:00 24.9 79 18.08 21 20 26 1011.6 0 39.0 38.3 72.9 192.8 210.8 732.0
26 21:50 25 79 18.19 21.1 20 24 1011.5 0 39.2 38.4 73.3 193.8 212.1 736.8
26 21:40 25 80 18.42 21.3 20 22 1011.5 0 39.7 38.9 74.4 196.7 215.6 748.9
26 21:30 25.1 81 18.75 21.6 20 26 1011.6 0 40.4 39.4 75.8 200.5 220.4 765.5
26 21:20 25.1 81 18.75 21.6 19 22 1011.4 0 40.4 39.4 75.8 200.5 220.3 765.4
26 21:10 25.1 78 18.06 21 24 26 1011.3 0 39.0 38.1 72.6 192.0 209.9 728.9
26 21:00 25.1 80 18.52 21.4 20 26 1011.3 0 39.9 39.0 74.7 197.6 216.8 753.1
26 20:50 25.2 79 18.39 21.3 19 22 1011.3 0 39.7 38.7 74.0 195.8 214.6 745.2
26 20:40 25.2 77 17.93 20.9 20 20 1011.4 0 38.7 37.9 71.9 190.1 207.6 721.2
26 20:30 25.2 77 17.93 20.9 20 28 1011.3 0 38.7 37.9 71.9 190.1 207.6 721.1
26 20:20 25.1 79 18.29 21.2 17 20 1011.2 0 39.5 38.6 73.6 194.8 213.3 740.9
26 20:10 25.1 79 18.29 21.2 19 20 1011.1 0 39.5 38.6 73.6 194.8 213.3 740.8
26 20:00 25.2 78 18.16 21.1 20 24 1011 0 39.2 38.3 72.9 192.9 211.0 733.0
26 19:50 25.2 79 18.39 21.3 20 22 1010.8 0 39.7 38.7 74.0 195.7 214.5 745.0
26 19:40 25.2 79 18.39 21.3 19 20 1010.7 0 39.7 38.7 74.0 195.7 214.5 744.9
26 19:30 25.2 76 17.69 20.7 20 26 1010.7 0 38.2 37.4 70.8 187.1 204.0 708.4
26 19:20 25.2 78 18.16 21.1 20 24 1010.4 0 39.2 38.2 72.9 192.8 211.0 732.7
26 19:10 25.2 77 17.93 20.9 22 24 1010.4 0 38.7 37.8 71.8 190.0 207.5 720.7
26 19:00 25.2 77 17.93 20.9 20 24 1010.3 0 38.7 37.8 71.8 190.0 207.5 720.6
26 18:50 25.2 77 17.93 20.9 20 22 1010.1 0 38.7 37.8 71.8 189.9 207.5 720.5
26 18:40 25.2 77 17.93 20.9 22 24 1010 0 38.7 37.8 71.8 189.9 207.4 720.5
26 18:30 25.3 77 18.03 21 20 24 1010 0 38.9 37.9 72.2 190.9 208.7 724.7
26 18:20 25.3 76 17.79 20.8 22 22 1009.8 0 38.4 37.5 71.1 187.9 205.1 712.2
26 18:10 25.5 77 18.23 21.2 20 24 1009.7 0 39.3 38.2 72.9 192.8 211.1 733.1
26 18:00 25.5 75 17.76 20.7 19 22 1009.9 0 38.3 37.4 70.7 187.1 204.1 708.8
26 17:50 25.7 74 17.72 20.7 20 24 1009.7 0 38.2 37.2 70.4 186.1 202.9 704.8
26 17:40 25.9 75 18.16 21.1 17 19 1009.6 0 39.1 37.9 72.2 190.9 208.9 725.6
26 17:30 26 73 17.77 20.8 20 24 1009.6 0 38.3 37.1 70.3 186.0 202.8 704.5
26 17:20 26.2 73 17.97 21 22 26 1009.2 0 38.7 37.4 71.0 187.8 205.2 712.7
26 17:10 26.2 71 17.48 20.7 19 20 1009.1 0 37.6 36.5 68.8 182.0 198.0 687.7
26 17:00 26.9 72 18.43 21.4 17 24 1009.1 0 39.6 37.9 72.4 191.6 210.0 729.7
26 16:50 26.9 72 18.43 21.4 19 20 1009 0 39.6 37.9 72.4 191.6 210.0 729.7
26 16:40 26.4 71 17.67 20.7 22 24 1009 0 38.0 36.8 69.5 183.7 200.2 695.5
26 16:30 26.5 71 17.77 20.8 22 28 1009 0 38.2 36.9 69.8 184.7 201.4 699.6
26 16:20 27 71 18.27 21.3 17 24 1008.8 0 39.2 37.6 71.6 189.4 207.4 720.4
26 16:10 26.9 70 17.92 21 19 22 1008.8 0 38.5 37.0 70.1 185.5 202.5 703.5
26 16:00 26.9 70 17.92 21 20 30 1008.8 0 38.5 37.0 70.1 185.5 202.5 703.5
26 15:50 27.2 69 17.96 21 20 24 1008.7 0 38.6 36.9 70.0 185.2 202.3 702.7
26 15:40 26.9 69 17.66 20.7 22 24 1008.6 0 38.0 36.5 68.9 182.3 198.7 690.2
26 15:30 27.4 67 17.63 20.7 20 26 1008.7 0 37.8 36.3 68.4 180.8 197.0 684.3
26 15:20 27.7 68 18.19 21.3 22 24 1008.7 0 39.0 37.1 70.6 186.7 204.3 709.7
26 15:10 27.8 67 18.02 21.1 22 24 1008.7 0 38.6 36.8 69.7 184.5 201.5 700.3
26 15:00 28.2 65 17.87 21.2 20 24 1008.8 0 38.3 36.3 68.7 181.8 198.3 689.2
26 14:50 28.3 65 17.97 21.1 19 22 1008.8 0 38.5 36.5 69.1 182.7 199.5 693.3
26 14:40 28.4 66 18.35 21.4 22 22 1008.9 0 39.3 37.1 70.6 186.9 204.7 711.4
26 14:30 28.8 65 18.47 21.6 19 22 1009.1 0 39.5 37.2 70.8 187.4 205.4 713.8
26 14:20 29 64 18.39 21.5 19 20 1009.1 0 39.3 36.9 70.3 186.0 203.7 708.0
26 14:10 28.8 62 17.62 21 17 20 1009.1 0 37.7 35.7 67.1 177.5 193.3 671.7
26 14:00 29.2 64 18.59 21.7 19 22 1009.3 0 39.7 37.2 71.0 187.8 206.1 716.2
26 13:50 29.1 64 18.49 21.6 19 20 1009.3 0 39.5 37.1 70.6 186.9 204.9 712.1
26 13:40 29.4 63 18.5 21.6 19 22 1009.3 0 39.5 37.0 70.4 186.3 204.2 709.9
26 13:30 28.6 67 18.83 21.9 17 22 1009.5 0 40.3 37.9 72.6 192.2 211.2 734.1
26 13:20 29 64 18.39 21.5 19 20 1009.4 0 39.3 36.9 70.3 186.0 203.7 708.1
26 13:10 29.7 63 18.8 21.9 19 20 1009.5 0 40.1 37.4 71.5 189.1 207.7 722.1
26 13:00 29.9 62 18.7 21.8 17 20 1009.7 0 39.8 37.1 70.9 187.5 205.8 715.4
26 12:50 29.3 64 18.69 21.8 17 17 1009.7 0 39.9 37.3 71.4 188.8 207.3 720.5
26 12:40 29.2 64 18.59 21.9 17 19 1009.7 0 39.7 37.2 71.0 187.9 206.1 716.4
26 12:30 29.2 64 18.59 21.7 17 20 1010.1 0 39.7 37.2 71.0 188.0 206.2 716.6
26 12:20 28.4 65 18.07 21.2 15 17 1010.1 0 38.7 36.7 69.5 183.8 200.9 698.0
26 12:10 29.3 64 18.69 21.8 19 20 1010.2 0 39.9 37.4 71.4 188.9 207.4 720.7
26 12:00 29 64 18.39 21.7 15 19 1010.4 0 39.3 37.0 70.4 186.2 203.9 708.6
26 11:50 28.9 65 18.57 21.7 17 19 1010.4 0 39.7 37.3 71.2 188.5 206.7 718.6
26 11:40 29.3 66 19.27 22.3 11 15 1010.5 0 41.1 38.4 74.0 195.8 215.8 750.1
26 11:30 29.5 65 19.19 22.2 13 17 1010.7 0 40.9 38.2 73.5 194.4 214.1 744.2
26 11:20 28.8 64 18.19 21.3 15 15 1010.7 0 38.9 36.7 69.7 184.3 201.6 700.6
26 11:10 28.9 64 18.29 21.4 15 17 1010.7 0 39.1 36.9 70.0 185.3 202.8 704.7
26 11:00 29 64 18.39 21.7 13 17 1010.9 0 39.3 37.0 70.4 186.2 204.0 708.9
26 10:50 29.5 64 18.89 22 13 15 1010.8 0 40.3 37.7 72.1 190.8 209.8 729.2
26 10:40 29.1 64 18.49 21.6 13 15 1010.9 0 39.5 37.1 70.7 187.2 205.1 712.9
26 10:30 29.6 65 19.29 22.3 13 17 1011.1 0 41.1 38.3 73.8 195.4 215.3 748.5
26 10:20 29.2 63 18.3 21.4 13 13 1011 0 39.1 36.8 69.8 184.7 202.2 702.6
26 10:10 29.6 63 18.7 21.8 13 13 1011 0 39.9 37.3 71.2 188.4 206.8 718.8
26 10:00 29.8 65 19.5 22.5 13 15 1011.2 0 41.5 38.6 74.6 197.4 217.8 757.2
26 09:50 28.7 67 18.93 22 15 17 1011 0 40.4 38.1 73.1 193.3 212.6 738.9
26 09:40 28.7 66 18.65 21.7 13 15 1011 0 39.9 37.6 71.8 190.0 208.5 724.8
26 09:30 28.2 67 18.42 21.5 13 15 1011.1 0 39.4 37.4 71.3 188.6 206.6 717.9
26 09:20 28.2 65 17.87 21.2 13 15 1011 0 38.3 36.4 68.8 182.1 198.6 690.2

Last Refresh: 27-Feb-2021 02:30:12

Most of the information presented on this site is sourced from the Bureau of Meteorology.  Copyright in all material sourced from the Bureau of Meteorology resides with the Commonwealth of Australia.